Time;durP1;ratioP1;P1;durP2;ratioP2;P2;SDS_P1;SDS_P2;PMS_P1;PMS_P2;Temp;Humidity;BMP_temperature;BMP_pressure;BME280_temperature;BME280_humidity;BME280_pressure;Samples;Min_cycle;Max_cycle;Signal;HPM_P1;HPM_P2
2023/09/03 00:01:18;;;;;;;13.57;10.43;;;17.10;99.90;;;;;;5080016;28;20219;-71
2023/09/03 00:04:07;;;;;;;14.82;10.43;;;17.10;99.90;;;;;;5059625;28;20215;-72
2023/09/03 00:06:56;;;;;;;12.85;10.80;;;17.10;99.90;;;;;;5060150;28;20232;-72
2023/09/03 00:09:45;;;;;;;14.55;10.10;;;17.10;99.90;;;;;;5066603;28;20224;-71
2023/09/03 00:12:35;;;;;;;16.52;10.80;;;17.10;99.90;;;;;;5080624;28;20227;-71
2023/09/03 00:15:25;;;;;;;13.63;10.60;;;17.00;99.90;;;;;;5063671;28;20223;-71
2023/09/03 00:18:14;;;;;;;13.52;11.13;;;17.10;99.90;;;;;;5065210;28;20219;-72
2023/09/03 00:21:05;;;;;;;16.00;11.40;;;16.90;99.90;;;;;;5077658;28;20220;-72
2023/09/03 00:23:54;;;;;;;19.52;11.20;;;16.90;99.90;;;;;;5088232;27;20223;-71
2023/09/03 00:26:43;;;;;;;14.25;10.95;;;16.90;99.90;;;;;;5063439;28;20785;-72
2023/09/03 00:29:35;;;;;;;15.65;10.60;;;17.00;99.90;;;;;;5056745;28;20230;-72
2023/09/03 00:32:24;;;;;;;13.70;11.07;;;17.00;99.90;;;;;;5057602;28;20349;-72
2023/09/03 00:35:13;;;;;;;14.43;11.27;;;16.90;99.90;;;;;;5069107;28;20220;-73
2023/09/03 00:38:02;;;;;;;13.75;10.70;;;17.00;99.90;;;;;;5067877;28;20231;-72
2023/09/03 00:40:51;;;;;;;14.65;10.65;;;17.00;99.90;;;;;;5062013;28;20649;-71
2023/09/03 00:43:40;;;;;;;13.95;11.30;;;17.00;99.90;;;;;;5060700;28;20240;-72
2023/09/03 00:46:30;;;;;;;17.45;11.35;;;17.00;99.90;;;;;;5066535;28;20758;-71
2023/09/03 00:49:22;;;;;;;15.68;11.63;;;16.90;99.90;;;;;;5069629;28;20227;-73
2023/09/03 00:52:12;;;;;;;15.82;11.50;;;16.90;99.90;;;;;;5078731;28;20229;-71
2023/09/03 00:55:01;;;;;;;16.38;12.23;;;16.90;99.90;;;;;;5058143;28;20231;-72
2023/09/03 00:57:50;;;;;;;13.48;11.25;;;16.90;99.90;;;;;;5069233;28;20360;-71
2023/09/03 01:00:39;;;;;;;14.43;11.18;;;16.80;99.90;;;;;;5081543;28;20281;-71
2023/09/03 01:03:30;;;;;;;16.33;11.55;;;17.00;99.90;;;;;;5040086;28;20217;-71
2023/09/03 01:06:20;;;;;;;13.52;11.27;;;16.90;99.90;;;;;;5070578;28;21505;-73
2023/09/03 01:09:10;;;;;;;14.75;11.20;;;16.80;99.90;;;;;;5069488;28;20212;-73
2023/09/03 01:12:09;;;;;;;17.00;11.15;;;16.80;99.90;;;;;;5067340;28;20227;-73
2023/09/03 01:15:04;;;;;;;14.43;10.57;;;16.90;99.90;;;;;;5066185;28;20211;-71
2023/09/03 01:17:59;;;;;;;14.95;11.55;;;16.90;99.90;;;;;;5081669;28;20362;-72
2023/09/03 01:21:06;;;;;;;15.27;11.93;;;16.90;99.90;;;;;;5069821;28;20227;-71
2023/09/03 01:24:08;;;;;;;15.68;11.70;;;16.90;99.90;;;;;;5075665;28;20652;-71
2023/09/03 01:27:08;;;;;;;18.67;11.80;;;16.80;99.90;;;;;;5061980;28;20215;-71
2023/09/03 01:30:00;;;;;;;17.60;11.85;;;16.80;99.90;;;;;;5065592;28;20662;-71
2023/09/03 01:32:51;;;;;;;15.43;11.57;;;16.70;99.90;;;;;;5061958;28;20401;-71
2023/09/03 01:35:41;;;;;;;15.85;11.82;;;16.70;99.90;;;;;;5091760;28;20246;-71
2023/09/03 01:38:31;;;;;;;15.73;11.80;;;16.70;99.90;;;;;;5084511;28;20224;-71
2023/09/03 01:41:21;;;;;;;16.55;11.77;;;16.70;99.90;;;;;;5065825;28;20224;-71
2023/09/03 01:44:11;;;;;;;14.30;11.15;;;16.60;99.90;;;;;;5041651;28;20913;-71
2023/09/03 01:47:12;;;;;;;14.88;11.55;;;16.60;99.90;;;;;;5042841;28;20786;-71
2023/09/03 01:50:12;;;;;;;13.95;11.35;;;16.70;99.90;;;;;;5059875;28;20219;-72
2023/09/03 01:53:10;;;;;;;14.80;11.88;;;16.70;99.90;;;;;;5042598;28;20227;-72
2023/09/03 01:56:00;;;;;;;17.35;11.43;;;16.60;99.90;;;;;;5045532;28;20740;-72
2023/09/03 01:58:54;;;;;;;14.77;11.73;;;16.50;99.90;;;;;;5037518;28;20318;-71
2023/09/03 02:01:45;;;;;;;19.20;11.70;;;16.60;99.90;;;;;;5034255;28;20227;-72
2023/09/03 02:04:35;;;;;;;16.42;11.90;;;16.60;99.90;;;;;;5041689;28;20212;-71
2023/09/03 02:07:24;;;;;;;16.27;11.57;;;16.50;99.90;;;;;;5054945;28;20223;-71
2023/09/03 02:10:13;;;;;;;15.05;12.32;;;16.60;99.90;;;;;;5060270;28;20236;-72
2023/09/03 02:13:02;;;;;;;18.05;12.00;;;16.60;99.90;;;;;;5055271;28;20769;-72
2023/09/03 02:15:51;;;;;;;14.27;11.80;;;16.60;99.90;;;;;;5046847;28;20234;-71
2023/09/03 02:18:40;;;;;;;16.33;11.45;;;16.50;99.90;;;;;;5048904;28;20293;-71
2023/09/03 02:21:31;;;;;;;18.42;12.23;;;16.40;99.90;;;;;;5063061;28;20228;-71
2023/09/03 02:24:20;;;;;;;14.57;11.20;;;16.50;99.90;;;;;;5044261;28;20645;-71
2023/09/03 02:27:09;;;;;;;16.65;12.07;;;16.50;99.90;;;;;;5055084;28;20225;-71
2023/09/03 02:29:58;;;;;;;16.38;11.80;;;16.50;99.90;;;;;;5052014;28;20229;-71
2023/09/03 02:32:47;;;;;;;14.70;11.70;;;16.40;99.90;;;;;;5031800;28;20229;-73
2023/09/03 02:35:36;;;;;;;15.43;11.82;;;16.40;99.90;;;;;;5043055;28;20412;-72
2023/09/03 02:38:27;;;;;;;16.00;11.52;;;16.50;99.90;;;;;;5057271;28;20212;-71
2023/09/03 02:41:15;;;;;;;15.18;11.32;;;16.40;99.90;;;;;;5057261;28;20225;-71
2023/09/03 02:44:06;;;;;;;17.63;12.52;;;16.40;99.90;;;;;;5044711;28;20228;-72
2023/09/03 02:46:55;;;;;;;15.13;12.18;;;16.40;99.90;;;;;;5046431;28;20294;-70
2023/09/03 02:49:44;;;;;;;16.42;12.32;;;16.40;99.90;;;;;;5041870;28;20228;-71
2023/09/03 02:52:33;;;;;;;16.02;12.48;;;16.40;99.90;;;;;;5045461;28;20225;-71
2023/09/03 02:55:24;;;;;;;15.95;12.05;;;16.40;99.90;;;;;;5041509;28;20223;-69
2023/09/03 02:58:12;;;;;;;14.75;11.88;;;16.40;99.90;;;;;;5047072;28;20725;-72
2023/09/03 03:01:05;;;;;;;16.80;12.25;;;16.40;99.90;;;;;;5042082;28;20228;-71
2023/09/03 03:03:53;;;;;;;15.50;11.95;;;16.50;99.90;;;;;;5034490;28;20370;-73
2023/09/03 03:06:43;;;;;;;16.63;11.98;;;16.40;99.90;;;;;;5039887;28;20266;-72
2023/09/03 03:09:32;;;;;;;13.77;11.30;;;16.40;99.90;;;;;;5039148;28;20225;-72
2023/09/03 03:12:22;;;;;;;15.02;11.55;;;16.30;99.90;;;;;;5046286;28;20228;-72
2023/09/03 03:15:11;;;;;;;17.25;11.70;;;16.30;99.90;;;;;;5059386;28;20259;-73
2023/09/03 03:18:01;;;;;;;15.02;11.15;;;16.20;99.90;;;;;;5041700;28;20221;-70
2023/09/03 03:20:50;;;;;;;14.63;11.45;;;16.20;99.90;;;;;;5045912;28;20236;-73
2023/09/03 03:23:40;;;;;;;18.15;12.18;;;16.10;99.90;;;;;;5046691;28;20261;-72
2023/09/03 03:26:31;;;;;;;15.75;12.00;;;16.10;99.90;;;;;;5031703;28;20224;-71
2023/09/03 03:29:22;;;;;;;16.88;12.43;;;16.20;99.90;;;;;;5050015;28;20615;-73
2023/09/03 03:32:13;;;;;;;20.77;13.20;;;16.20;99.90;;;;;;5033560;28;20228;-73
2023/09/03 03:35:02;;;;;;;18.90;12.85;;;16.20;99.90;;;;;;5054802;28;20242;-72
2023/09/03 03:37:51;;;;;;;16.85;11.57;;;16.20;99.90;;;;;;5035435;28;20815;-71
2023/09/03 03:40:40;;;;;;;15.07;12.07;;;16.20;99.90;;;;;;5043279;28;20259;-72
2023/09/03 03:43:29;;;;;;;16.17;12.65;;;16.00;99.90;;;;;;5053278;28;21001;-71
2023/09/03 03:46:20;;;;;;;19.70;12.93;;;16.10;99.90;;;;;;5062325;28;20825;-71
2023/09/03 03:49:12;;;;;;;18.80;13.40;;;16.10;99.90;;;;;;5058632;28;20216;-72
2023/09/03 03:52:01;;;;;;;16.00;12.82;;;16.00;99.90;;;;;;5063594;28;20314;-72
2023/09/03 03:54:51;;;;;;;17.15;12.88;;;16.00;99.90;;;;;;5064643;28;20698;-71
2023/09/03 03:57:42;;;;;;;15.60;12.93;;;16.00;99.90;;;;;;5073374;28;20240;-71
2023/09/03 04:00:31;;;;;;;17.95;13.35;;;16.00;99.90;;;;;;5061202;28;20236;-71
2023/09/03 04:03:22;;;;;;;18.92;13.65;;;16.00;99.90;;;;;;5064447;28;20219;-72
2023/09/03 04:06:11;;;;;;;22.67;13.13;;;16.00;99.90;;;;;;5061195;28;20253;-72
2023/09/03 04:09:00;;;;;;;19.45;13.20;;;16.00;99.90;;;;;;5067215;28;20215;-72
2023/09/03 04:11:49;;;;;;;18.05;13.35;;;15.90;99.90;;;;;;5063482;28;20283;-72
2023/09/03 04:14:37;;;;;;;15.43;12.70;;;15.90;99.90;;;;;;5067330;28;20322;-72
2023/09/03 04:17:26;;;;;;;19.73;13.75;;;15.80;99.90;;;;;;5077530;28;20378;-72
2023/09/03 04:20:17;;;;;;;17.17;13.43;;;15.80;99.90;;;;;;5070933;28;20212;-71
2023/09/03 04:23:06;;;;;;;16.77;13.40;;;15.80;99.90;;;;;;5074648;28;20726;-75
2023/09/03 04:25:56;;;;;;;15.50;13.73;;;16.00;99.90;;;;;;5061430;28;20219;-72
2023/09/03 04:28:47;;;;;;;15.55;13.80;;;16.00;99.90;;;;;;5076029;28;20220;-72
2023/09/03 04:31:36;;;;;;;20.20;14.50;;;16.10;99.90;;;;;;5058205;28;20235;-71
2023/09/03 04:34:26;;;;;;;17.13;13.38;;;16.20;99.90;;;;;;5065376;28;20704;-73
2023/09/03 04:37:19;;;;;;;16.10;13.48;;;16.30;99.90;;;;;;5057398;28;20729;-72
2023/09/03 04:40:09;;;;;;;20.25;13.50;;;16.40;99.90;;;;;;5056234;28;20231;-73
2023/09/03 04:42:58;;;;;;;19.45;13.75;;;16.30;99.90;;;;;;5081263;28;20590;-71
2023/09/03 04:45:48;;;;;;;17.33;13.48;;;16.50;99.90;;;;;;5082958;28;20322;-72
2023/09/03 04:48:37;;;;;;;19.50;13.68;;;16.40;99.90;;;;;;5063456;28;20253;-72
2023/09/03 04:51:26;;;;;;;16.55;13.75;;;16.40;99.90;;;;;;5072119;28;20238;-71
2023/09/03 04:54:19;;;;;;;14.52;12.68;;;16.50;99.90;;;;;;5051948;28;20219;-72
2023/09/03 04:57:09;;;;;;;16.40;13.18;;;16.60;99.90;;;;;;5054556;28;20254;-73
2023/09/03 04:59:58;;;;;;;18.08;13.68;;;16.70;99.90;;;;;;5075202;28;20223;-72
2023/09/03 05:02:48;;;;;;;19.60;13.38;;;16.70;99.90;;;;;;5060618;28;20223;-71
2023/09/03 05:05:41;;;;;;;19.55;14.00;;;16.70;99.90;;;;;;5064093;28;20690;-71
2023/09/03 05:08:32;;;;;;;15.93;13.07;;;16.70;99.90;;;;;;5064244;28;20223;-72
2023/09/03 05:11:23;;;;;;;17.20;14.32;;;16.70;99.90;;;;;;5063483;28;20703;-71
2023/09/03 05:14:12;;;;;;;17.25;13.45;;;16.80;99.90;;;;;;5061357;28;20227;-73
2023/09/03 05:17:01;;;;;;;17.00;13.90;;;16.70;99.90;;;;;;5056224;28;20961;-71
2023/09/03 05:19:50;;;;;;;18.42;13.98;;;16.70;99.90;;;;;;5047887;28;20946;-72
2023/09/03 05:22:39;;;;;;;17.30;13.82;;;16.80;99.90;;;;;;5077652;28;20547;-71
2023/09/03 05:25:28;;;;;;;20.63;13.40;;;16.80;99.90;;;;;;5075879;28;20227;-71
2023/09/03 05:28:19;;;;;;;20.15;14.18;;;16.70;99.90;;;;;;5072792;28;20972;-71
2023/09/03 05:31:09;;;;;;;19.08;14.02;;;16.70;99.90;;;;;;5082528;28;20302;-70
2023/09/03 05:33:59;;;;;;;16.30;12.55;;;16.80;99.90;;;;;;5063607;28;20573;-72
2023/09/03 05:36:48;;;;;;;18.88;13.40;;;16.70;99.90;;;;;;5035583;28;20779;-71
2023/09/03 05:39:37;;;;;;;15.70;12.95;;;16.70;99.90;;;;;;5049856;28;20320;-72
2023/09/03 05:42:27;;;;;;;20.25;13.25;;;16.70;99.90;;;;;;5051677;28;20722;-73
2023/09/03 05:45:17;;;;;;;17.52;13.52;;;16.90;99.90;;;;;;5060100;28;20227;-69
2023/09/03 05:48:07;;;;;;;17.90;13.48;;;17.10;99.90;;;;;;5071210;28;20231;-72
2023/09/03 05:50:59;;;;;;;14.60;12.10;;;17.20;99.90;;;;;;5047455;28;20288;-70
2023/09/03 05:53:50;;;;;;;16.98;12.60;;;17.20;99.90;;;;;;5065425;28;20212;-71
2023/09/03 05:56:41;;;;;;;16.42;12.32;;;17.40;99.90;;;;;;5070185;28;20293;-71
2023/09/03 05:59:30;;;;;;;16.20;12.60;;;17.60;99.90;;;;;;5066383;28;20657;-71
2023/09/03 06:02:20;;;;;;;13.52;12.07;;;17.80;99.90;;;;;;5063117;28;20911;-71
2023/09/03 06:05:10;;;;;;;14.82;11.90;;;18.00;99.90;;;;;;5077734;28;20211;-72
2023/09/03 06:08:00;;;;;;;15.93;11.95;;;18.50;99.90;;;;;;5083385;28;20330;-71
2023/09/03 06:10:48;;;;;;;15.13;11.93;;;18.50;99.90;;;;;;5062932;28;20304;-74
2023/09/03 06:13:37;;;;;;;14.48;11.70;;;18.50;99.90;;;;;;5061835;28;20227;-72
2023/09/03 06:16:26;;;;;;;13.98;11.93;;;18.50;99.90;;;;;;5071307;28;20328;-69
2023/09/03 06:19:17;;;;;;;14.35;11.40;;;18.60;99.90;;;;;;5074063;28;20590;-72
2023/09/03 06:22:06;;;;;;;17.35;11.68;;;18.80;99.90;;;;;;5085512;28;20214;-72
2023/09/03 06:24:55;;;;;;;15.27;11.63;;;19.30;99.90;;;;;;5078720;28;20737;-71
2023/09/03 06:27:43;;;;;;;13.68;11.02;;;19.30;99.90;;;;;;5060328;28;20227;-72
2023/09/03 06:30:32;;;;;;;16.48;11.48;;;19.30;99.90;;;;;;5055962;28;20227;-72
2023/09/03 06:33:21;;;;;;;13.57;11.13;;;19.20;99.90;;;;;;5070428;28;20279;-72
2023/09/03 06:36:11;;;;;;;18.33;11.90;;;19.10;99.90;;;;;;5072189;28;20216;-72
2023/09/03 06:39:00;;;;;;;12.57;10.70;;;19.00;99.90;;;;;;5077521;28;20220;-72
2023/09/03 06:41:49;;;;;;;13.60;10.77;;;19.00;99.90;;;;;;5057932;28;20236;-72
2023/09/03 06:44:39;;;;;;;19.25;10.82;;;19.10;99.90;;;;;;5063616;28;20238;-71
2023/09/03 06:47:28;;;;;;;13.90;10.57;;;19.00;99.90;;;;;;5065902;28;20234;-71
2023/09/03 06:50:17;;;;;;;16.80;11.07;;;19.00;99.90;;;;;;5049211;28;20215;-73
2023/09/03 06:53:07;;;;;;;14.57;9.88;;;19.10;99.90;;;;;;5062200;28;20254;-72
2023/09/03 06:55:58;;;;;;;13.60;9.02;;;19.20;99.90;;;;;;5079171;28;20586;-71
2023/09/03 06:58:46;;;;;;;11.52;8.65;;;19.30;99.90;;;;;;5065745;28;20428;-72
2023/09/03 07:01:36;;;;;;;9.63;8.57;;;19.40;99.90;;;;;;5063752;28;20238;-72
2023/09/03 07:04:24;;;;;;;11.13;7.65;;;19.60;99.90;;;;;;5076953;28;20223;-72
2023/09/03 07:07:13;;;;;;;11.23;7.35;;;19.80;99.90;;;;;;5063682;28;20242;-73
2023/09/03 07:10:07;;;;;;;8.57;6.82;;;20.00;99.90;;;;;;5073760;28;20284;-71
2023/09/03 07:12:56;;;;;;;7.88;6.38;;;20.20;99.90;;;;;;5072151;28;20249;-72
2023/09/03 07:15:45;;;;;;;8.43;6.28;;;20.30;99.90;;;;;;5064983;28;20318;-72
2023/09/03 07:18:34;;;;;;;8.27;6.38;;;20.40;99.90;;;;;;5072373;28;20651;-72
2023/09/03 07:21:23;;;;;;;10.57;6.63;;;20.50;99.90;;;;;;5062996;28;20220;-71
2023/09/03 07:24:12;;;;;;;8.57;5.60;;;20.60;99.90;;;;;;5079200;28;20308;-72
2023/09/03 07:27:05;;;;;;;6.53;5.40;;;20.70;99.90;;;;;;5054162;28;20228;-71
2023/09/03 07:29:54;;;;;;;8.18;4.43;;;20.80;99.90;;;;;;5051713;28;20239;-72
2023/09/03 07:32:43;;;;;;;5.90;4.57;;;20.60;99.90;;;;;;5065909;28;20234;-71
2023/09/03 07:35:33;;;;;;;6.47;4.65;;;20.40;99.90;;;;;;5067343;28;20226;-71
2023/09/03 07:38:25;;;;;;;6.00;4.60;;;20.30;99.90;;;;;;5089836;28;20211;-73
2023/09/03 07:41:13;;;;;;;6.75;4.40;;;20.20;99.90;;;;;;5058216;28;20219;-73
2023/09/03 07:44:05;;;;;;;5.50;4.47;;;20.30;99.90;;;;;;5065908;28;20223;-72
2023/09/03 07:46:53;;;;;;;9.32;5.00;;;20.40;99.90;;;;;;5077444;28;20219;-71
2023/09/03 07:49:43;;;;;;;5.38;4.65;;;20.30;99.90;;;;;;5065085;28;20608;-72
2023/09/03 07:52:31;;;;;;;6.10;4.53;;;20.70;99.90;;;;;;5052816;28;20717;-72
2023/09/03 07:55:20;;;;;;;6.00;4.32;;;21.30;99.90;;;;;;5058915;28;20220;-72
2023/09/03 07:58:09;;;;;;;4.72;4.22;;;22.10;99.90;;;;;;5053212;28;20223;-72
2023/09/03 08:01:00;;;;;;;5.25;3.80;;;22.70;99.90;;;;;;5080018;28;20700;-73
2023/09/03 08:03:49;;;;;;;7.47;4.18;;;22.70;99.90;;;;;;5078380;28;20219;-73
2023/09/03 08:06:37;;;;;;;4.88;4.05;;;22.60;99.90;;;;;;5072571;28;20296;-72
2023/09/03 08:09:27;;;;;;;4.80;3.75;;;22.30;99.90;;;;;;5068914;28;20223;-71
2023/09/03 08:12:16;;;;;;;5.32;4.25;;;22.20;99.90;;;;;;5056542;28;20236;-72
2023/09/03 08:15:06;;;;;;;4.22;3.40;;;21.90;99.90;;;;;;5056702;28;20227;-72
2023/09/03 08:17:57;;;;;;;4.40;3.80;;;22.00;99.90;;;;;;5074550;28;20219;-72
2023/09/03 08:20:45;;;;;;;5.03;4.20;;;21.90;99.90;;;;;;5067977;28;20481;-71
2023/09/03 08:23:34;;;;;;;6.75;4.20;;;21.90;99.90;;;;;;5058941;28;20228;-73
2023/09/03 08:26:23;;;;;;;5.47;4.40;;;21.90;99.90;;;;;;5054202;28;20298;-73
2023/09/03 08:29:12;;;;;;;4.55;3.85;;;21.90;99.90;;;;;;5067037;28;20662;-74
2023/09/03 08:32:01;;;;;;;4.85;3.65;;;22.00;99.90;;;;;;5078622;28;20591;-73
2023/09/03 08:34:53;;;;;;;6.25;3.63;;;22.00;99.90;;;;;;5064621;28;20242;-70
2023/09/03 08:37:42;;;;;;;4.75;3.60;;;22.20;99.90;;;;;;5059374;28;20227;-74
2023/09/03 08:40:32;;;;;;;8.07;4.90;;;22.30;99.90;;;;;;5060593;28;20368;-73
2023/09/03 08:43:25;;;;;;;7.05;4.10;;;23.00;99.90;;;;;;5073361;28;20890;-73
2023/09/03 08:46:17;;;;;;;5.53;4.80;;;23.30;99.90;;;;;;5057529;28;20273;-73
2023/09/03 08:49:07;;;;;;;6.00;4.55;;;23.80;99.90;;;;;;5063437;28;20216;-74
2023/09/03 08:51:58;;;;;;;6.13;4.90;;;24.70;99.90;;;;;;5061972;28;20222;-73
2023/09/03 08:54:47;;;;;;;9.88;5.05;;;24.30;99.90;;;;;;5070586;28;20998;-73
2023/09/03 08:57:37;;;;;;;8.23;4.40;;;24.20;99.90;;;;;;5069941;28;20293;-74
2023/09/03 09:00:26;;;;;;;5.45;4.40;;;24.20;99.90;;;;;;5064983;28;20215;-73
2023/09/03 09:03:18;;;;;;;7.00;4.63;;;24.70;99.90;;;;;;5075010;28;20219;-73
2023/09/03 09:06:08;;;;;;;6.45;4.85;;;24.30;99.90;;;;;;5065400;28;20231;-72
2023/09/03 09:09:00;;;;;;;5.93;4.70;;;24.50;99.90;;;;;;5061554;28;20254;-73
2023/09/03 09:11:54;;;;;;;7.28;4.70;;;25.00;99.90;;;;;;5057119;28;20224;-71
2023/09/03 09:14:49;;;;;;;4.93;4.30;;;25.10;99.90;;;;;;5043669;28;20224;-73
2023/09/03 09:17:38;;;;;;;5.80;4.28;;;25.20;99.90;;;;;;5075446;28;20233;-74
2023/09/03 09:20:27;;;;;;;6.00;4.88;;;24.70;99.90;;;;;;5078607;28;20690;-73
2023/09/03 09:23:21;;;;;;;8.15;4.63;;;24.30;99.90;;;;;;5070700;28;20220;-74
2023/09/03 09:26:22;;;;;;;4.90;3.97;;;23.90;99.90;;;;;;5084368;28;20219;-71
2023/09/03 09:29:11;;;;;;;7.15;3.90;;;23.80;99.90;;;;;;5066103;28;20212;-72
2023/09/03 09:32:16;;;;;;;4.70;3.97;;;23.70;99.90;;;;;;5089869;28;20226;-73
2023/09/03 09:35:06;;;;;;;5.60;2.80;;;23.80;99.90;;;;;;5063136;28;20245;-72
2023/09/03 09:37:55;;;;;;;3.20;2.70;;;23.70;99.90;;;;;;5044365;28;20668;-73
2023/09/03 09:40:44;;;;;;;3.83;3.00;;;23.70;99.90;;;;;;5060417;28;20235;-73
2023/09/03 09:43:46;;;;;;;4.20;2.97;;;23.50;99.90;;;;;;5067747;28;20231;-73
2023/09/03 09:46:35;;;;;;;5.65;2.90;;;23.30;99.90;;;;;;5058243;28;20768;-73
2023/09/03 09:49:24;;;;;;;3.83;2.90;;;23.20;99.90;;;;;;5084073;28;20348;-72
2023/09/03 09:52:13;;;;;;;4.80;2.92;;;23.20;99.90;;;;;;5069507;28;20299;-73
2023/09/03 09:55:03;;;;;;;4.72;2.92;;;23.00;99.90;;;;;;5072773;28;20223;-73
2023/09/03 09:57:52;;;;;;;4.07;2.88;;;22.90;99.90;;;;;;5074493;28;20211;-72
2023/09/03 10:00:43;;;;;;;5.07;3.28;;;23.00;99.90;;;;;;5081889;28;20921;-72
2023/09/03 10:03:42;;;;;;;4.38;2.97;;;23.30;99.90;;;;;;5091859;28;20220;-73
2023/09/03 10:06:31;;;;;;;5.13;2.90;;;23.30;99.90;;;;;;5081298;28;20273;-74
2023/09/03 10:09:21;;;;;;;4.93;3.20;;;23.00;99.90;;;;;;5090750;28;20231;-73
2023/09/03 10:12:10;;;;;;;4.60;3.30;;;22.70;99.90;;;;;;5070691;28;20229;-74
2023/09/03 10:15:00;;;;;;;4.68;2.85;;;22.40;99.90;;;;;;5080059;28;22848;-73
2023/09/03 10:17:52;;;;;;;5.43;3.35;;;22.20;99.90;;;;;;5085329;28;20249;-74
2023/09/03 10:20:41;;;;;;;5.03;3.42;;;22.00;99.90;;;;;;5086970;28;20282;-72
2023/09/03 10:23:36;;;;;;;5.47;3.60;;;21.80;99.90;;;;;;5101919;28;20226;-72
2023/09/03 10:26:28;;;;;;;5.57;3.50;;;21.70;99.90;;;;;;5085298;28;20689;-74
2023/09/03 10:29:20;;;;;;;4.60;3.20;;;22.10;99.90;;;;;;5100966;28;20809;-72
2023/09/03 10:32:11;;;;;;;4.72;3.05;;;22.30;99.90;;;;;;5078011;28;20317;-74
2023/09/03 10:35:08;;;;;;;6.18;3.80;;;22.30;99.90;;;;;;5097549;28;20349;-74
2023/09/03 10:37:57;;;;;;;4.30;3.30;;;22.20;99.90;;;;;;5066238;28;20561;-74
2023/09/03 10:40:46;;;;;;;3.63;2.90;;;22.00;99.90;;;;;;5067537;28;20320;-73
2023/09/03 10:43:35;;;;;;;3.38;2.95;;;21.80;99.90;;;;;;5080010;28;20446;-73
2023/09/03 10:46:25;;;;;;;4.65;3.08;;;21.90;99.90;;;;;;5097404;28;20215;-72
2023/09/03 10:49:14;;;;;;;3.83;2.85;;;21.90;99.90;;;;;;5101848;28;20210;-73
2023/09/03 10:52:42;;;;;;;3.95;2.78;;;22.00;99.90;;;;;;5093422;28;20744;-74
2023/09/03 10:55:31;;;;;;;3.92;3.00;;;22.10;99.90;;;;;;5072671;28;20234;-73
2023/09/03 10:58:30;;;;;;;3.80;2.70;;;22.10;99.90;;;;;;5095959;28;20728;-72
2023/09/03 11:01:22;;;;;;;5.20;2.83;;;22.20;99.90;;;;;;5076897;28;20325;-72
2023/09/03 11:04:11;;;;;;;3.95;2.60;;;22.20;99.90;;;;;;5091642;28;20250;-72
2023/09/03 11:07:24;;;;;;;5.00;2.50;;;22.20;99.90;;;;;;5081164;28;20261;-72
2023/09/03 11:10:41;;;;;;;4.90;2.63;;;22.40;99.90;;;;;;5098192;28;20288;-72
2023/09/03 11:13:31;;;;;;;4.82;2.75;;;22.50;99.90;;;;;;5062281;28;20227;-71
2023/09/03 11:16:28;;;;;;;3.70;2.75;;;22.30;99.90;;;;;;5078471;28;20997;-73
2023/09/03 11:19:17;;;;;;;3.28;2.33;;;22.40;99.90;;;;;;5098370;28;20214;-70
2023/09/03 11:22:07;;;;;;;3.55;2.58;;;22.50;99.90;;;;;;5066063;28;20346;-70
2023/09/03 11:24:57;;;;;;;3.35;2.53;;;22.60;99.90;;;;;;5086125;28;20219;-71
2023/09/03 11:27:49;;;;;;;4.18;2.05;;;22.60;99.90;;;;;;5071113;28;20226;-72
2023/09/03 11:30:39;;;;;;;4.47;2.00;;;22.50;99.90;;;;;;5072744;28;20911;-72
2023/09/03 11:33:29;;;;;;;2.30;1.98;;;22.40;99.90;;;;;;5052719;28;20227;-72
2023/09/03 11:36:21;;;;;;;3.60;2.20;;;22.30;99.90;;;;;;5089780;28;20235;-71
2023/09/03 11:39:16;;;;;;;5.47;2.00;;;22.10;99.90;;;;;;5073763;28;20302;-73
2023/09/03 11:42:13;;;;;;;2.30;1.80;;;22.20;99.90;;;;;;5084311;28;20348;-71
2023/09/03 11:45:04;;;;;;;3.13;1.58;;;22.30;99.90;;;;;;5099130;28;20489;-72
2023/09/03 11:47:53;;;;;;;2.10;1.85;;;22.50;99.90;;;;;;5099454;28;20223;-72
2023/09/03 11:50:42;;;;;;;2.33;1.75;;;22.50;99.90;;;;;;5100877;28;20226;-73
2023/09/03 11:53:39;;;;;;;1.80;1.67;;;22.70;99.90;;;;;;5086558;28;20321;-72
2023/09/03 11:56:30;;;;;;;2.90;1.80;;;22.60;99.90;;;;;;5094859;28;20231;-72
2023/09/03 11:59:20;;;;;;;2.30;1.83;;;22.90;99.90;;;;;;5085530;28;20301;-74
2023/09/03 12:02:11;;;;;;;2.78;2.28;;;23.00;99.90;;;;;;5078418;28;20219;-72
2023/09/03 12:05:01;;;;;;;4.78;2.05;;;23.10;99.90;;;;;;5097355;28;20230;-72
2023/09/03 12:07:50;;;;;;;2.72;1.90;;;23.10;99.90;;;;;;5074326;28;20687;-74
2023/09/03 12:10:39;;;;;;;3.47;1.98;;;23.10;99.90;;;;;;5084579;28;20247;-73
2023/09/03 12:13:32;;;;;;;3.38;1.77;;;23.10;99.90;;;;;;5080605;28;20937;-73
2023/09/03 12:16:25;;;;;;;2.65;2.03;;;23.10;99.90;;;;;;5082141;28;20226;-74
2023/09/03 12:19:14;;;;;;;5.28;2.03;;;23.10;99.90;;;;;;5078343;28;20791;-74
2023/09/03 12:22:03;;;;;;;2.30;2.10;;;23.00;99.90;;;;;;5074514;28;20241;-73
2023/09/03 12:24:55;;;;;;;2.72;2.40;;;23.00;99.90;;;;;;5089877;28;20946;-73
2023/09/03 12:27:50;;;;;;;3.45;2.33;;;22.80;99.90;;;;;;5074595;28;20229;-73
2023/09/03 12:30:59;;;;;;;3.97;2.65;;;23.10;99.90;;;;;;5082213;28;20245;-73
2023/09/03 12:33:51;;;;;;;5.10;2.78;;;23.20;99.90;;;;;;5097688;28;20818;-73
2023/09/03 12:36:56;;;;;;;3.17;2.60;;;23.50;99.90;;;;;;5088441;28;20230;-73
2023/09/03 12:39:46;;;;;;;3.35;2.35;;;23.40;99.90;;;;;;5095271;28;20735;-73
2023/09/03 12:42:35;;;;;;;3.75;2.83;;;23.20;99.90;;;;;;5094171;28;20241;-74
2023/09/03 12:45:24;;;;;;;3.13;2.38;;;22.90;99.90;;;;;;5084595;28;20218;-73
2023/09/03 12:48:12;;;;;;;2.28;1.90;;;22.70;99.90;;;;;;5082800;28;20373;-74
2023/09/03 12:51:05;;;;;;;2.28;2.00;;;22.70;99.90;;;;;;5089508;28;20222;-74
2023/09/03 12:53:54;;;;;;;2.45;2.00;;;22.70;99.90;;;;;;5090642;28;21052;-73
2023/09/03 12:56:43;;;;;;;3.72;2.20;;;22.60;99.90;;;;;;5078455;28;20984;-74
2023/09/03 12:59:31;;;;;;;2.10;1.65;;;22.60;85.80;;;;;;5076576;28;20227;-73
2023/09/03 13:02:20;;;;;;;4.28;2.00;;;22.50;97.10;;;;;;5094728;28;20215;-72
2023/09/03 13:05:10;;;;;;;3.40;1.92;;;22.60;98.70;;;;;;5100355;28;20227;-72
2023/09/03 13:08:00;;;;;;;2.72;2.17;;;22.70;99.80;;;;;;5093751;28;20226;-73
2023/09/03 13:10:49;;;;;;;10.77;2.70;;;22.70;99.90;;;;;;5099487;28;20231;-73
2023/09/03 13:13:38;;;;;;;4.80;2.40;;;22.80;99.90;;;;;;5094586;28;20215;-73
2023/09/03 13:16:28;;;;;;;3.40;2.65;;;22.80;99.90;;;;;;5074652;28;20270;-74
2023/09/03 13:19:17;;;;;;;5.68;2.40;;;22.80;99.90;;;;;;5093467;28;20650;-73
2023/09/03 13:22:06;;;;;;;2.65;2.30;;;22.60;99.90;;;;;;5098364;28;20275;-73
2023/09/03 13:24:56;;;;;;;5.00;2.20;;;22.60;99.90;;;;;;5081603;28;20222;-73
2023/09/03 13:27:45;;;;;;;2.92;2.20;;;22.50;83.90;;;;;;5083023;28;20245;-73
2023/09/03 13:30:35;;;;;;;3.47;2.20;;;22.30;62.50;;;;;;5086401;28;20235;-73
2023/09/03 13:33:25;;;;;;;2.75;2.20;;;22.30;73.70;;;;;;5085325;28;20230;-73
2023/09/03 13:36:17;;;;;;;2.70;2.05;;;22.40;92.40;;;;;;5075410;28;20220;-71
2023/09/03 13:39:06;;;;;;;2.33;1.90;;;22.30;96.00;;;;;;5087947;28;20299;-73
2023/09/03 13:41:56;;;;;;;2.20;1.83;;;22.30;91.20;;;;;;5079936;28;20373;-74
2023/09/03 13:44:45;;;;;;;2.90;1.77;;;22.30;66.50;;;;;;5071589;28;20250;-71
2023/09/03 13:47:34;;;;;;;4.00;2.00;;;22.40;54.50;;;;;;5097947;28;20858;-73
2023/09/03 13:50:22;;;;;;;3.08;2.15;;;22.40;66.70;;;;;;5085193;28;20218;-73
2023/09/03 13:53:11;;;;;;;4.43;2.20;;;22.40;91.50;;;;;;5103710;28;20246;-73
2023/09/03 13:56:05;;;;;;;1.90;1.70;;;22.30;95.50;;;;;;5086985;28;20223;-73
2023/09/03 13:58:55;;;;;;;6.22;2.20;;;22.40;96.10;;;;;;5079630;28;20223;-74
2023/09/03 14:01:44;;;;;;;3.20;2.05;;;22.40;97.20;;;;;;5077490;28;20295;-73
2023/09/03 14:04:33;;;;;;;4.20;2.45;;;22.40;76.40;;;;;;5077707;28;20223;-73
2023/09/03 14:07:22;;;;;;;2.22;1.90;;;22.40;34.90;;;;;;5072618;28;20228;-73
2023/09/03 14:10:11;;;;;;;2.20;2.00;;;22.30;36.30;;;;;;5077537;28;20307;-71
2023/09/03 14:13:00;;;;;;;2.95;1.70;;;22.40;41.60;;;;;;5078266;28;20598;-71
2023/09/03 14:15:50;;;;;;;4.10;2.10;;;22.40;49.00;;;;;;5095177;28;20218;-72
2023/09/03 14:18:39;;;;;;;2.40;1.95;;;22.40;46.20;;;;;;5076315;28;20902;-72
2023/09/03 14:21:28;;;;;;;2.45;2.10;;;22.30;13.00;;;;;;5094388;28;20246;-71
2023/09/03 14:24:17;;;;;;;3.40;2.00;;;22.30;1.40;;;;;;5086872;28;20225;-72
2023/09/03 14:27:06;;;;;;;4.65;2.10;;;22.30;1.00;;;;;;5104700;28;20279;-72
2023/09/03 14:29:55;;;;;;;2.92;2.03;;;22.30;10.20;;;;;;5098136;28;20298;-71
2023/09/03 14:32:45;;;;;;;4.38;2.22;;;22.40;32.80;;;;;;5097721;28;20296;-72
2023/09/03 14:35:34;;;;;;;3.50;2.10;;;22.40;15.10;;;;;;5083449;28;20308;-72
2023/09/03 14:38:23;;;;;;;3.30;2.20;;;22.40;30.50;;;;;;5079541;28;20221;-72